sensor_id;sensor_type;location;lat;lon;timestamp;P1;durP1;ratioP1;P2;durP2;ratioP2
19235;SDS011;9752;54.270;12.470;2023-04-24T00:02:00;15.90;;;14.20;;
19235;SDS011;9752;54.270;12.470;2023-04-24T00:07:04;19.10;;;14.40;;
19235;SDS011;9752;54.270;12.470;2023-04-24T00:12:07;15.40;;;13.50;;
19235;SDS011;9752;54.270;12.470;2023-04-24T00:17:08;18.23;;;15.20;;
19235;SDS011;9752;54.270;12.470;2023-04-24T00:22:11;16.97;;;15.07;;
19235;SDS011;9752;54.270;12.470;2023-04-24T00:27:13;16.20;;;13.80;;
19235;SDS011;9752;54.270;12.470;2023-04-24T00:32:15;15.40;;;13.73;;
19235;SDS011;9752;54.270;12.470;2023-04-24T00:37:19;19.47;;;15.33;;
19235;SDS011;9752;54.270;12.470;2023-04-24T00:42:20;18.53;;;13.70;;
19235;SDS011;9752;54.270;12.470;2023-04-24T00:47:22;16.30;;;14.13;;
19235;SDS011;9752;54.270;12.470;2023-04-24T00:52:26;14.77;;;13.23;;
19235;SDS011;9752;54.270;12.470;2023-04-24T00:57:28;16.50;;;13.43;;
19235;SDS011;9752;54.270;12.470;2023-04-24T01:02:30;15.27;;;13.77;;
19235;SDS011;9752;54.270;12.470;2023-04-24T01:07:35;18.33;;;14.20;;
19235;SDS011;9752;54.270;12.470;2023-04-24T01:12:38;15.40;;;13.77;;
19235;SDS011;9752;54.270;12.470;2023-04-24T01:17:40;14.93;;;13.33;;
19235;SDS011;9752;54.270;12.470;2023-04-24T01:22:43;15.30;;;13.73;;
19235;SDS011;9752;54.270;12.470;2023-04-24T01:27:45;15.33;;;13.60;;
19235;SDS011;9752;54.270;12.470;2023-04-24T01:32:46;16.03;;;13.80;;
19235;SDS011;9752;54.270;12.470;2023-04-24T01:37:50;17.33;;;14.70;;
19235;SDS011;9752;54.270;12.470;2023-04-24T01:42:52;18.20;;;14.63;;
19235;SDS011;9752;54.270;12.470;2023-04-24T01:47:54;21.07;;;14.87;;
19235;SDS011;9752;54.270;12.470;2023-04-24T01:52:59;19.00;;;15.77;;
19235;SDS011;9752;54.270;12.470;2023-04-24T01:58:00;18.30;;;15.77;;
19235;SDS011;9752;54.270;12.470;2023-04-24T02:03:02;20.97;;;16.70;;
19235;SDS011;9752;54.270;12.470;2023-04-24T02:08:05;20.97;;;17.83;;
19235;SDS011;9752;54.270;12.470;2023-04-24T02:13:11;19.93;;;16.13;;
19235;SDS011;9752;54.270;12.470;2023-04-24T02:18:13;21.43;;;16.87;;
19235;SDS011;9752;54.270;12.470;2023-04-24T02:23:17;21.27;;;16.50;;
19235;SDS011;9752;54.270;12.470;2023-04-24T02:28:19;26.27;;;18.37;;
19235;SDS011;9752;54.270;12.470;2023-04-24T02:33:21;20.00;;;17.00;;
19235;SDS011;9752;54.270;12.470;2023-04-24T02:38:24;21.40;;;17.60;;
19235;SDS011;9752;54.270;12.470;2023-04-24T02:43:26;20.83;;;16.97;;
19235;SDS011;9752;54.270;12.470;2023-04-24T02:48:28;22.40;;;17.57;;
19235;SDS011;9752;54.270;12.470;2023-04-24T02:53:31;23.57;;;16.67;;
19235;SDS011;9752;54.270;12.470;2023-04-24T02:58:32;21.17;;;17.63;;
19235;SDS011;9752;54.270;12.470;2023-04-24T03:03:34;22.53;;;17.87;;
19235;SDS011;9752;54.270;12.470;2023-04-24T03:08:37;22.73;;;18.23;;
19235;SDS011;9752;54.270;12.470;2023-04-24T03:13:39;25.97;;;18.47;;
19235;SDS011;9752;54.270;12.470;2023-04-24T03:18:40;22.43;;;18.73;;
19235;SDS011;9752;54.270;12.470;2023-04-24T03:23:44;28.50;;;21.97;;
19235;SDS011;9752;54.270;12.470;2023-04-24T03:28:46;30.10;;;21.13;;
19235;SDS011;9752;54.270;12.470;2023-04-24T03:33:48;23.77;;;19.10;;
19235;SDS011;9752;54.270;12.470;2023-04-24T03:38:51;28.50;;;21.37;;
19235;SDS011;9752;54.270;12.470;2023-04-24T03:44:00;23.90;;;18.83;;
19235;SDS011;9752;54.270;12.470;2023-04-24T03:49:02;21.67;;;17.40;;
19235;SDS011;9752;54.270;12.470;2023-04-24T03:54:10;21.67;;;17.60;;
19235;SDS011;9752;54.270;12.470;2023-04-24T03:59:13;28.47;;;19.77;;
19235;SDS011;9752;54.270;12.470;2023-04-24T04:04:18;24.17;;;18.67;;
19235;SDS011;9752;54.270;12.470;2023-04-24T04:09:22;24.47;;;20.67;;
19235;SDS011;9752;54.270;12.470;2023-04-24T04:14:23;23.60;;;18.83;;
19235;SDS011;9752;54.270;12.470;2023-04-24T04:19:26;30.03;;;21.80;;
19235;SDS011;9752;54.270;12.470;2023-04-24T04:24:29;25.67;;;19.67;;
19235;SDS011;9752;54.270;12.470;2023-04-24T04:29:33;30.60;;;21.20;;
19235;SDS011;9752;54.270;12.470;2023-04-24T04:34:37;27.10;;;20.07;;
19235;SDS011;9752;54.270;12.470;2023-04-24T04:39:43;27.83;;;21.33;;
19235;SDS011;9752;54.270;12.470;2023-04-24T04:44:51;33.20;;;23.10;;
19235;SDS011;9752;54.270;12.470;2023-04-24T04:49:59;33.67;;;23.53;;
19235;SDS011;9752;54.270;12.470;2023-04-24T04:55:03;35.30;;;23.87;;
19235;SDS011;9752;54.270;12.470;2023-04-24T05:00:26;28.27;;;21.37;;
19235;SDS011;9752;54.270;12.470;2023-04-24T05:05:34;35.23;;;25.77;;
19235;SDS011;9752;54.270;12.470;2023-04-24T05:10:37;30.10;;;21.77;;
19235;SDS011;9752;54.270;12.470;2023-04-24T05:15:39;32.30;;;22.50;;
19235;SDS011;9752;54.270;12.470;2023-04-24T05:20:41;30.37;;;22.80;;
19235;SDS011;9752;54.270;12.470;2023-04-24T05:25:45;29.07;;;21.17;;
19235;SDS011;9752;54.270;12.470;2023-04-24T05:30:48;30.67;;;21.37;;
19235;SDS011;9752;54.270;12.470;2023-04-24T05:35:52;29.83;;;21.77;;
19235;SDS011;9752;54.270;12.470;2023-04-24T05:40:56;29.40;;;21.33;;
19235;SDS011;9752;54.270;12.470;2023-04-24T05:45:58;29.77;;;22.20;;
19235;SDS011;9752;54.270;12.470;2023-04-24T05:50:59;23.80;;;18.73;;
19235;SDS011;9752;54.270;12.470;2023-04-24T05:56:02;25.70;;;19.70;;
19235;SDS011;9752;54.270;12.470;2023-04-24T06:01:05;30.60;;;22.30;;
19235;SDS011;9752;54.270;12.470;2023-04-24T06:06:09;31.97;;;21.83;;
19235;SDS011;9752;54.270;12.470;2023-04-24T06:11:12;24.80;;;19.03;;
19235;SDS011;9752;54.270;12.470;2023-04-24T06:16:14;22.70;;;17.97;;
19235;SDS011;9752;54.270;12.470;2023-04-24T06:21:21;22.37;;;16.83;;
19235;SDS011;9752;54.270;12.470;2023-04-24T06:26:24;23.00;;;18.40;;
19235;SDS011;9752;54.270;12.470;2023-04-24T06:31:26;20.90;;;18.13;;
19235;SDS011;9752;54.270;12.470;2023-04-24T06:36:28;19.43;;;16.30;;
19235;SDS011;9752;54.270;12.470;2023-04-24T06:41:32;19.87;;;16.37;;
19235;SDS011;9752;54.270;12.470;2023-04-24T06:46:34;14.93;;;13.53;;
19235;SDS011;9752;54.270;12.470;2023-04-24T06:51:36;12.80;;;11.70;;
19235;SDS011;9752;54.270;12.470;2023-04-24T06:56:39;10.97;;;10.27;;
19235;SDS011;9752;54.270;12.470;2023-04-24T07:01:41;10.63;;;9.93;;
19235;SDS011;9752;54.270;12.470;2023-04-24T07:06:43;11.47;;;10.63;;
19235;SDS011;9752;54.270;12.470;2023-04-24T07:11:47;10.87;;;10.17;;
19235;SDS011;9752;54.270;12.470;2023-04-24T07:16:49;12.80;;;12.00;;
19235;SDS011;9752;54.270;12.470;2023-04-24T07:21:51;12.53;;;11.90;;
19235;SDS011;9752;54.270;12.470;2023-04-24T07:26:55;13.47;;;12.67;;
19235;SDS011;9752;54.270;12.470;2023-04-24T07:31:57;13.80;;;13.13;;
19235;SDS011;9752;54.270;12.470;2023-04-24T07:36:58;13.80;;;13.20;;
19235;SDS011;9752;54.270;12.470;2023-04-24T07:42:02;13.33;;;12.83;;
19235;SDS011;9752;54.270;12.470;2023-04-24T07:47:04;14.37;;;13.77;;
19235;SDS011;9752;54.270;12.470;2023-04-24T07:52:06;14.30;;;13.70;;
19235;SDS011;9752;54.270;12.470;2023-04-24T07:57:09;15.27;;;14.57;;
19235;SDS011;9752;54.270;12.470;2023-04-24T08:02:10;14.70;;;14.10;;
19235;SDS011;9752;54.270;12.470;2023-04-24T08:07:12;14.77;;;14.07;;
19235;SDS011;9752;54.270;12.470;2023-04-24T08:12:15;15.30;;;14.70;;
19235;SDS011;9752;54.270;12.470;2023-04-24T08:17:17;15.47;;;14.87;;
19235;SDS011;9752;54.270;12.470;2023-04-24T08:22:19;15.40;;;14.77;;
19235;SDS011;9752;54.270;12.470;2023-04-24T08:27:22;15.57;;;14.97;;
19235;SDS011;9752;54.270;12.470;2023-04-24T08:32:24;15.00;;;14.20;;
19235;SDS011;9752;54.270;12.470;2023-04-24T08:37:27;15.13;;;14.63;;
19235;SDS011;9752;54.270;12.470;2023-04-24T08:42:31;15.70;;;14.70;;
19235;SDS011;9752;54.270;12.470;2023-04-24T08:47:33;16.07;;;15.27;;
19235;SDS011;9752;54.270;12.470;2023-04-24T08:52:36;15.07;;;14.40;;
19235;SDS011;9752;54.270;12.470;2023-04-24T08:57:39;15.87;;;15.27;;
19235;SDS011;9752;54.270;12.470;2023-04-24T09:02:42;15.30;;;14.70;;
19235;SDS011;9752;54.270;12.470;2023-04-24T09:07:44;16.07;;;15.47;;
19235;SDS011;9752;54.270;12.470;2023-04-24T09:12:52;16.23;;;15.60;;
19235;SDS011;9752;54.270;12.470;2023-04-24T09:17:54;15.80;;;15.20;;
19235;SDS011;9752;54.270;12.470;2023-04-24T09:22:56;15.40;;;14.80;;
19235;SDS011;9752;54.270;12.470;2023-04-24T09:28:01;15.00;;;14.40;;
19235;SDS011;9752;54.270;12.470;2023-04-24T09:33:10;14.63;;;14.03;;
19235;SDS011;9752;54.270;12.470;2023-04-24T09:38:14;14.83;;;14.23;;
19235;SDS011;9752;54.270;12.470;2023-04-24T09:43:17;14.47;;;13.97;;
19235;SDS011;9752;54.270;12.470;2023-04-24T09:48:19;15.10;;;14.40;;
19235;SDS011;9752;54.270;12.470;2023-04-24T09:53:23;15.40;;;14.40;;
19235;SDS011;9752;54.270;12.470;2023-04-24T09:58:28;15.20;;;14.70;;
19235;SDS011;9752;54.270;12.470;2023-04-24T10:03:30;14.70;;;14.20;;
19235;SDS011;9752;54.270;12.470;2023-04-24T10:08:33;15.80;;;15.20;;
19235;SDS011;9752;54.270;12.470;2023-04-24T10:13:37;15.37;;;14.67;;
19235;SDS011;9752;54.270;12.470;2023-04-24T10:18:40;16.30;;;15.60;;
19235;SDS011;9752;54.270;12.470;2023-04-24T10:23:42;14.93;;;14.43;;
19235;SDS011;9752;54.270;12.470;2023-04-24T10:28:47;15.77;;;15.20;;
19235;SDS011;9752;54.270;12.470;2023-04-24T10:33:49;15.47;;;14.87;;
19235;SDS011;9752;54.270;12.470;2023-04-24T10:38:53;15.80;;;15.20;;
19235;SDS011;9752;54.270;12.470;2023-04-24T10:44:05;15.17;;;14.57;;
19235;SDS011;9752;54.270;12.470;2023-04-24T10:49:08;14.70;;;14.20;;
19235;SDS011;9752;54.270;12.470;2023-04-24T10:54:21;14.30;;;13.80;;
19235;SDS011;9752;54.270;12.470;2023-04-24T10:59:25;15.50;;;14.90;;
19235;SDS011;9752;54.270;12.470;2023-04-24T11:04:31;16.13;;;15.53;;
19235;SDS011;9752;54.270;12.470;2023-04-24T11:09:35;15.67;;;15.07;;
19235;SDS011;9752;54.270;12.470;2023-04-24T11:20:03;15.33;;;14.73;;
19235;SDS011;9752;54.270;12.470;2023-04-24T11:25:07;14.90;;;14.40;;
19235;SDS011;9752;54.270;12.470;2023-04-24T11:30:16;14.67;;;13.97;;
19235;SDS011;9752;54.270;12.470;2023-04-24T11:35:19;14.10;;;13.60;;
19235;SDS011;9752;54.270;12.470;2023-04-24T11:40:24;13.80;;;13.30;;
19235;SDS011;9752;54.270;12.470;2023-04-24T11:45:28;13.77;;;13.17;;
19235;SDS011;9752;54.270;12.470;2023-04-24T11:50:30;13.90;;;13.40;;
19235;SDS011;9752;54.270;12.470;2023-04-24T11:55:33;14.57;;;14.07;;
19235;SDS011;9752;54.270;12.470;2023-04-24T12:00:36;14.87;;;14.37;;
19235;SDS011;9752;54.270;12.470;2023-04-24T12:05:38;14.27;;;13.70;;
19235;SDS011;9752;54.270;12.470;2023-04-24T12:10:40;14.50;;;13.93;;
19235;SDS011;9752;54.270;12.470;2023-04-24T12:15:44;14.03;;;13.53;;
19235;SDS011;9752;54.270;12.470;2023-04-24T12:20:45;14.70;;;14.10;;
19235;SDS011;9752;54.270;12.470;2023-04-24T12:25:47;14.73;;;14.23;;
19235;SDS011;9752;54.270;12.470;2023-04-24T12:30:53;14.87;;;14.27;;
19235;SDS011;9752;54.270;12.470;2023-04-24T12:35:55;13.57;;;13.07;;
19235;SDS011;9752;54.270;12.470;2023-04-24T12:41:02;13.50;;;13.00;;
19235;SDS011;9752;54.270;12.470;2023-04-24T12:46:06;14.20;;;13.60;;
19235;SDS011;9752;54.270;12.470;2023-04-24T12:51:08;14.60;;;13.90;;
19235;SDS011;9752;54.270;12.470;2023-04-24T12:56:11;13.47;;;12.97;;
19235;SDS011;9752;54.270;12.470;2023-04-24T13:01:14;13.77;;;13.20;;
19235;SDS011;9752;54.270;12.470;2023-04-24T13:06:15;13.70;;;12.90;;
19235;SDS011;9752;54.270;12.470;2023-04-24T13:11:17;12.90;;;12.50;;
19235;SDS011;9752;54.270;12.470;2023-04-24T13:16:20;14.03;;;13.53;;
19235;SDS011;9752;54.270;12.470;2023-04-24T13:21:23;13.50;;;13.00;;
19235;SDS011;9752;54.270;12.470;2023-04-24T13:26:26;13.73;;;13.23;;
19235;SDS011;9752;54.270;12.470;2023-04-24T13:31:29;13.67;;;13.17;;
19235;SDS011;9752;54.270;12.470;2023-04-24T13:36:31;13.40;;;12.73;;
19235;SDS011;9752;54.270;12.470;2023-04-24T13:41:32;13.57;;;12.87;;
19235;SDS011;9752;54.270;12.470;2023-04-24T13:46:36;12.23;;;11.47;;
19235;SDS011;9752;54.270;12.470;2023-04-24T13:51:38;12.10;;;11.50;;
19235;SDS011;9752;54.270;12.470;2023-04-24T13:56:40;8.93;;;8.53;;
19235;SDS011;9752;54.270;12.470;2023-04-24T14:01:43;8.07;;;7.77;;
19235;SDS011;9752;54.270;12.470;2023-04-24T14:06:45;9.63;;;9.30;;
19235;SDS011;9752;54.270;12.470;2023-04-24T14:11:47;9.27;;;8.87;;
19235;SDS011;9752;54.270;12.470;2023-04-24T14:16:50;10.10;;;9.80;;
19235;SDS011;9752;54.270;12.470;2023-04-24T14:21:52;11.10;;;10.60;;
19235;SDS011;9752;54.270;12.470;2023-04-24T14:26:55;10.70;;;10.30;;
19235;SDS011;9752;54.270;12.470;2023-04-24T14:31:58;10.67;;;10.27;;
19235;SDS011;9752;54.270;12.470;2023-04-24T14:37:00;10.47;;;10.07;;
19235;SDS011;9752;54.270;12.470;2023-04-24T14:42:03;13.40;;;12.90;;
19235;SDS011;9752;54.270;12.470;2023-04-24T14:47:06;13.50;;;12.90;;
19235;SDS011;9752;54.270;12.470;2023-04-24T14:52:08;14.07;;;13.47;;
19235;SDS011;9752;54.270;12.470;2023-04-24T14:57:10;13.83;;;13.33;;
19235;SDS011;9752;54.270;12.470;2023-04-24T15:02:13;15.37;;;14.57;;
19235;SDS011;9752;54.270;12.470;2023-04-24T15:07:15;15.20;;;14.60;;
19235;SDS011;9752;54.270;12.470;2023-04-24T15:12:16;14.17;;;13.47;;
19235;SDS011;9752;54.270;12.470;2023-04-24T15:17:20;14.90;;;14.30;;
19235;SDS011;9752;54.270;12.470;2023-04-24T15:22:21;14.20;;;13.50;;
19235;SDS011;9752;54.270;12.470;2023-04-24T15:27:23;16.03;;;15.23;;
19235;SDS011;9752;54.270;12.470;2023-04-24T15:32:26;16.43;;;15.57;;
19235;SDS011;9752;54.270;12.470;2023-04-24T15:37:28;17.27;;;16.20;;
19235;SDS011;9752;54.270;12.470;2023-04-24T15:42:30;17.40;;;16.40;;
19235;SDS011;9752;54.270;12.470;2023-04-24T15:47:33;17.37;;;16.47;;
19235;SDS011;9752;54.270;12.470;2023-04-24T15:52:35;17.53;;;16.53;;
19235;SDS011;9752;54.270;12.470;2023-04-24T15:57:37;17.30;;;16.40;;
19235;SDS011;9752;54.270;12.470;2023-04-24T16:02:40;17.80;;;16.80;;
19235;SDS011;9752;54.270;12.470;2023-04-24T16:07:42;17.57;;;16.57;;
19235;SDS011;9752;54.270;12.470;2023-04-24T16:12:43;16.87;;;15.97;;
19235;SDS011;9752;54.270;12.470;2023-04-24T16:17:47;17.00;;;16.00;;
19235;SDS011;9752;54.270;12.470;2023-04-24T16:22:49;16.53;;;15.77;;
19235;SDS011;9752;54.270;12.470;2023-04-24T16:27:51;16.17;;;15.37;;
19235;SDS011;9752;54.270;12.470;2023-04-24T16:32:55;15.47;;;14.77;;
19235;SDS011;9752;54.270;12.470;2023-04-24T16:37:56;15.60;;;14.97;;
19235;SDS011;9752;54.270;12.470;2023-04-24T16:42:58;14.70;;;14.10;;
19235;SDS011;9752;54.270;12.470;2023-04-24T16:48:01;14.97;;;14.37;;
19235;SDS011;9752;54.270;12.470;2023-04-24T16:53:03;14.80;;;14.20;;
19235;SDS011;9752;54.270;12.470;2023-04-24T16:58:05;14.40;;;13.80;;
19235;SDS011;9752;54.270;12.470;2023-04-24T17:03:08;14.33;;;13.27;;
19235;SDS011;9752;54.270;12.470;2023-04-24T17:08:09;13.57;;;13.07;;
19235;SDS011;9752;54.270;12.470;2023-04-24T17:13:11;13.40;;;12.90;;
19235;SDS011;9752;54.270;12.470;2023-04-24T17:18:14;15.20;;;14.50;;
19235;SDS011;9752;54.270;12.470;2023-04-24T17:23:17;14.77;;;13.97;;
19235;SDS011;9752;54.270;12.470;2023-04-24T17:28:22;13.87;;;13.10;;
19235;SDS011;9752;54.270;12.470;2023-04-24T17:33:29;14.80;;;14.10;;
19235;SDS011;9752;54.270;12.470;2023-04-24T17:38:31;14.57;;;13.87;;
19235;SDS011;9752;54.270;12.470;2023-04-24T17:43:33;15.40;;;14.43;;
19235;SDS011;9752;54.270;12.470;2023-04-24T17:48:36;14.47;;;13.77;;
19235;SDS011;9752;54.270;12.470;2023-04-24T17:53:38;13.30;;;12.73;;
19235;SDS011;9752;54.270;12.470;2023-04-24T17:58:40;13.70;;;12.93;;
19235;SDS011;9752;54.270;12.470;2023-04-24T18:03:43;14.23;;;13.50;;
19235;SDS011;9752;54.270;12.470;2023-04-24T18:08:45;15.20;;;14.53;;
19235;SDS011;9752;54.270;12.470;2023-04-24T18:13:47;15.00;;;14.30;;
19235;SDS011;9752;54.270;12.470;2023-04-24T18:18:51;14.67;;;14.07;;
19235;SDS011;9752;54.270;12.470;2023-04-24T18:23:53;15.40;;;14.50;;
19235;SDS011;9752;54.270;12.470;2023-04-24T18:28:59;14.33;;;13.63;;
19235;SDS011;9752;54.270;12.470;2023-04-24T18:34:02;15.67;;;14.93;;
19235;SDS011;9752;54.270;12.470;2023-04-24T18:39:04;14.70;;;14.03;;
19235;SDS011;9752;54.270;12.470;2023-04-24T18:44:06;14.37;;;13.77;;
19235;SDS011;9752;54.270;12.470;2023-04-24T18:49:09;24.13;;;22.83;;
19235;SDS011;9752;54.270;12.470;2023-04-24T18:54:11;16.20;;;15.40;;
19235;SDS011;9752;54.270;12.470;2023-04-24T18:59:13;12.67;;;11.47;;
19235;SDS011;9752;54.270;12.470;2023-04-24T19:04:15;12.80;;;12.20;;
19235;SDS011;9752;54.270;12.470;2023-04-24T19:09:19;12.73;;;11.93;;
19235;SDS011;9752;54.270;12.470;2023-04-24T19:14:21;14.23;;;13.33;;
19235;SDS011;9752;54.270;12.470;2023-04-24T19:19:24;11.83;;;10.30;;
19235;SDS011;9752;54.270;12.470;2023-04-24T19:24:27;12.80;;;12.00;;
19235;SDS011;9752;54.270;12.470;2023-04-24T19:29:30;13.33;;;12.50;;
19235;SDS011;9752;54.270;12.470;2023-04-24T19:34:33;12.23;;;11.33;;
19235;SDS011;9752;54.270;12.470;2023-04-24T19:39:35;13.87;;;12.63;;
19235;SDS011;9752;54.270;12.470;2023-04-24T19:44:37;16.60;;;15.30;;
19235;SDS011;9752;54.270;12.470;2023-04-24T19:49:40;15.30;;;14.00;;
19235;SDS011;9752;54.270;12.470;2023-04-24T19:54:41;16.17;;;14.53;;
19235;SDS011;9752;54.270;12.470;2023-04-24T19:59:43;16.07;;;13.93;;
19235;SDS011;9752;54.270;12.470;2023-04-24T20:04:46;14.47;;;13.13;;
19235;SDS011;9752;54.270;12.470;2023-04-24T20:09:48;12.33;;;11.60;;
19235;SDS011;9752;54.270;12.470;2023-04-24T20:14:50;11.43;;;10.67;;
19235;SDS011;9752;54.270;12.470;2023-04-24T20:19:53;10.67;;;9.97;;
19235;SDS011;9752;54.270;12.470;2023-04-24T20:24:54;10.13;;;9.43;;
19235;SDS011;9752;54.270;12.470;2023-04-24T20:29:56;10.37;;;9.60;;
19235;SDS011;9752;54.270;12.470;2023-04-24T20:35:00;10.20;;;9.60;;
19235;SDS011;9752;54.270;12.470;2023-04-24T20:40:03;10.73;;;9.70;;
19235;SDS011;9752;54.270;12.470;2023-04-24T20:45:05;10.50;;;9.60;;
19235;SDS011;9752;54.270;12.470;2023-04-24T20:50:09;9.70;;;9.10;;
19235;SDS011;9752;54.270;12.470;2023-04-24T20:55:11;10.20;;;9.47;;
19235;SDS011;9752;54.270;12.470;2023-04-24T21:00:14;11.07;;;10.17;;
19235;SDS011;9752;54.270;12.470;2023-04-24T21:05:18;11.60;;;10.50;;
19235;SDS011;9752;54.270;12.470;2023-04-24T21:10:19;10.63;;;9.73;;
19235;SDS011;9752;54.270;12.470;2023-04-24T21:15:21;10.83;;;9.93;;
19235;SDS011;9752;54.270;12.470;2023-04-24T21:20:24;11.07;;;10.13;;
19235;SDS011;9752;54.270;12.470;2023-04-24T21:25:26;11.57;;;10.63;;
19235;SDS011;9752;54.270;12.470;2023-04-24T21:30:29;11.33;;;10.23;;
19235;SDS011;9752;54.270;12.470;2023-04-24T21:35:32;11.30;;;10.20;;
19235;SDS011;9752;54.270;12.470;2023-04-24T21:40:34;12.33;;;11.17;;
19235;SDS011;9752;54.270;12.470;2023-04-24T21:45:36;12.43;;;10.73;;
19235;SDS011;9752;54.270;12.470;2023-04-24T21:50:39;12.27;;;10.97;;
19235;SDS011;9752;54.270;12.470;2023-04-24T21:55:40;13.40;;;11.23;;
19235;SDS011;9752;54.270;12.470;2023-04-24T22:00:42;11.30;;;10.10;;
19235;SDS011;9752;54.270;12.470;2023-04-24T22:05:45;13.33;;;11.40;;
19235;SDS011;9752;54.270;12.470;2023-04-24T22:10:47;11.87;;;10.77;;
19235;SDS011;9752;54.270;12.470;2023-04-24T22:15:48;14.13;;;11.47;;
19235;SDS011;9752;54.270;12.470;2023-04-24T22:20:52;13.83;;;11.30;;
19235;SDS011;9752;54.270;12.470;2023-04-24T22:25:54;14.03;;;11.00;;
19235;SDS011;9752;54.270;12.470;2023-04-24T22:30:55;14.37;;;12.37;;
19235;SDS011;9752;54.270;12.470;2023-04-24T22:35:58;16.87;;;12.70;;
19235;SDS011;9752;54.270;12.470;2023-04-24T22:41:00;13.97;;;11.43;;
19235;SDS011;9752;54.270;12.470;2023-04-24T22:46:03;13.90;;;12.00;;
19235;SDS011;9752;54.270;12.470;2023-04-24T22:51:06;14.10;;;11.87;;
19235;SDS011;9752;54.270;12.470;2023-04-24T22:56:08;14.90;;;11.70;;
19235;SDS011;9752;54.270;12.470;2023-04-24T23:01:09;12.43;;;10.97;;
19235;SDS011;9752;54.270;12.470;2023-04-24T23:06:12;15.43;;;12.17;;
19235;SDS011;9752;54.270;12.470;2023-04-24T23:11:14;17.60;;;12.27;;
19235;SDS011;9752;54.270;12.470;2023-04-24T23:16:16;12.37;;;11.00;;
19235;SDS011;9752;54.270;12.470;2023-04-24T23:21:19;15.60;;;11.90;;
19235;SDS011;9752;54.270;12.470;2023-04-24T23:26:21;13.17;;;11.87;;
19235;SDS011;9752;54.270;12.470;2023-04-24T23:31:23;14.80;;;13.13;;
19235;SDS011;9752;54.270;12.470;2023-04-24T23:36:26;13.47;;;11.97;;
19235;SDS011;9752;54.270;12.470;2023-04-24T23:41:28;16.27;;;13.10;;
19235;SDS011;9752;54.270;12.470;2023-04-24T23:46:30;13.00;;;11.70;;
19235;SDS011;9752;54.270;12.470;2023-04-24T23:51:33;17.70;;;12.57;;
19235;SDS011;9752;54.270;12.470;2023-04-24T23:56:35;16.60;;;13.30;;
